sensor_id;sensor_type;location;lat;lon;timestamp;temperature;humidity
74811;DHT22;63340;48.404;-4.506;2023-03-08T00:01:41;12.66;86.49
74811;DHT22;63340;48.404;-4.506;2023-03-08T00:04:09;12.74;86.52
74811;DHT22;63340;48.404;-4.506;2023-03-08T00:06:34;12.82;86.41
74811;DHT22;63340;48.404;-4.506;2023-03-08T00:09:00;12.89;86.14
74811;DHT22;63340;48.404;-4.506;2023-03-08T00:11:27;12.97;86.09
74811;DHT22;63340;48.404;-4.506;2023-03-08T00:13:52;13.02;85.89
74811;DHT22;63340;48.404;-4.506;2023-03-08T00:16:19;13.07;85.73
74811;DHT22;63340;48.404;-4.506;2023-03-08T00:18:44;13.09;85.82
74811;DHT22;63340;48.404;-4.506;2023-03-08T00:21:15;13.12;85.79
74811;DHT22;63340;48.404;-4.506;2023-03-08T00:23:42;13.14;85.70
74811;DHT22;63340;48.404;-4.506;2023-03-08T00:26:08;13.17;85.61
74811;DHT22;63340;48.404;-4.506;2023-03-08T00:28:37;13.22;85.31
74811;DHT22;63340;48.404;-4.506;2023-03-08T00:31:05;13.23;85.24
74811;DHT22;63340;48.404;-4.506;2023-03-08T00:33:31;13.30;84.97
74811;DHT22;63340;48.404;-4.506;2023-03-08T00:36:06;13.33;84.77
74811;DHT22;63340;48.404;-4.506;2023-03-08T00:38:35;13.26;84.59
74811;DHT22;63340;48.404;-4.506;2023-03-08T00:41:01;13.33;84.47
74811;DHT22;63340;48.404;-4.506;2023-03-08T00:43:28;13.36;84.27
74811;DHT22;63340;48.404;-4.506;2023-03-08T00:45:53;13.34;84.30
74811;DHT22;63340;48.404;-4.506;2023-03-08T00:48:22;13.34;84.24
74811;DHT22;63340;48.404;-4.506;2023-03-08T00:50:50;13.36;84.00
74811;DHT22;63340;48.404;-4.506;2023-03-08T00:53:16;13.37;83.77
74811;DHT22;63340;48.404;-4.506;2023-03-08T00:55:55;13.39;83.68
74811;DHT22;63340;48.404;-4.506;2023-03-08T00:58:22;13.39;83.74
74811;DHT22;63340;48.404;-4.506;2023-03-08T01:00:48;13.41;83.70
74811;DHT22;63340;48.404;-4.506;2023-03-08T01:03:14;13.39;83.83
74811;DHT22;63340;48.404;-4.506;2023-03-08T01:05:41;13.34;84.03
74811;DHT22;63340;48.404;-4.506;2023-03-08T01:08:07;13.41;83.71
74811;DHT22;63340;48.404;-4.506;2023-03-08T01:10:33;13.40;83.77
74811;DHT22;63340;48.404;-4.506;2023-03-08T01:12:59;13.43;83.38
74811;DHT22;63340;48.404;-4.506;2023-03-08T01:15:24;13.40;83.54
74811;DHT22;63340;48.404;-4.506;2023-03-08T01:17:50;13.47;83.21
74811;DHT22;63340;48.404;-4.506;2023-03-08T01:20:16;13.53;82.87
74811;DHT22;63340;48.404;-4.506;2023-03-08T01:22:41;13.60;82.57
74811;DHT22;63340;48.404;-4.506;2023-03-08T01:25:07;13.60;82.17
74811;DHT22;63340;48.404;-4.506;2023-03-08T01:27:33;13.61;81.92
74811;DHT22;63340;48.404;-4.506;2023-03-08T01:30:02;13.58;81.82
74811;DHT22;63340;48.404;-4.506;2023-03-08T01:32:28;13.61;81.79
74811;DHT22;63340;48.404;-4.506;2023-03-08T01:34:53;13.60;81.64
74811;DHT22;63340;48.404;-4.506;2023-03-08T01:37:20;13.64;81.49
74811;DHT22;63340;48.404;-4.506;2023-03-08T01:39:45;13.61;81.41
74811;DHT22;63340;48.404;-4.506;2023-03-08T01:42:13;13.65;81.36
74811;DHT22;63340;48.404;-4.506;2023-03-08T01:44:55;13.67;81.15
74811;DHT22;63340;48.404;-4.506;2023-03-08T01:47:23;13.65;81.01
74811;DHT22;63340;48.404;-4.506;2023-03-08T01:49:52;13.67;80.89
74811;DHT22;63340;48.404;-4.506;2023-03-08T01:52:27;13.65;80.88
74811;DHT22;63340;48.404;-4.506;2023-03-08T01:55:00;13.62;80.98
74811;DHT22;63340;48.404;-4.506;2023-03-08T01:57:30;13.60;80.88
74811;DHT22;63340;48.404;-4.506;2023-03-08T02:00:02;13.61;80.99
74811;DHT22;63340;48.404;-4.506;2023-03-08T02:02:40;13.64;80.93
74811;DHT22;63340;48.404;-4.506;2023-03-08T02:05:07;13.62;80.92
74811;DHT22;63340;48.404;-4.506;2023-03-08T02:07:32;13.64;80.88
74811;DHT22;63340;48.404;-4.506;2023-03-08T02:09:58;13.67;80.83
74811;DHT22;63340;48.404;-4.506;2023-03-08T02:12:24;13.55;81.32
74811;DHT22;63340;48.404;-4.506;2023-03-08T02:14:50;13.51;81.66
74811;DHT22;63340;48.404;-4.506;2023-03-08T02:17:16;13.57;81.69
74811;DHT22;63340;48.404;-4.506;2023-03-08T02:19:53;13.50;82.02
74811;DHT22;63340;48.404;-4.506;2023-03-08T02:22:20;13.48;82.26
74811;DHT22;63340;48.404;-4.506;2023-03-08T02:24:46;13.48;82.58
74811;DHT22;63340;48.404;-4.506;2023-03-08T02:27:17;13.50;82.80
74811;DHT22;63340;48.404;-4.506;2023-03-08T02:29:44;13.48;82.89
74811;DHT22;63340;48.404;-4.506;2023-03-08T02:32:09;13.53;82.79
74811;DHT22;63340;48.404;-4.506;2023-03-08T02:34:35;13.57;82.76
74811;DHT22;63340;48.404;-4.506;2023-03-08T02:37:01;13.51;82.91
74811;DHT22;63340;48.404;-4.506;2023-03-08T02:39:26;13.48;83.15
74811;DHT22;63340;48.404;-4.506;2023-03-08T02:41:52;13.41;83.44
74811;DHT22;63340;48.404;-4.506;2023-03-08T02:44:17;13.41;83.37
74811;DHT22;63340;48.404;-4.506;2023-03-08T02:46:42;13.43;83.37
74811;DHT22;63340;48.404;-4.506;2023-03-08T02:49:08;13.39;83.53
74811;DHT22;63340;48.404;-4.506;2023-03-08T02:51:34;13.41;83.46
74811;DHT22;63340;48.404;-4.506;2023-03-08T02:53:59;13.37;83.67
74811;DHT22;63340;48.404;-4.506;2023-03-08T02:56:25;13.40;83.66
74811;DHT22;63340;48.404;-4.506;2023-03-08T02:58:50;13.41;83.61
74811;DHT22;63340;48.404;-4.506;2023-03-08T03:01:16;13.41;83.49
74811;DHT22;63340;48.404;-4.506;2023-03-08T03:03:41;13.43;83.77
74811;DHT22;63340;48.404;-4.506;2023-03-08T03:06:18;13.34;83.87
74811;DHT22;63340;48.404;-4.506;2023-03-08T03:08:45;13.40;83.90
74811;DHT22;63340;48.404;-4.506;2023-03-08T03:11:16;13.39;83.92
74811;DHT22;63340;48.404;-4.506;2023-03-08T03:13:42;13.39;84.00
74811;DHT22;63340;48.404;-4.506;2023-03-08T03:16:09;13.39;84.20
74811;DHT22;63340;48.404;-4.506;2023-03-08T03:18:35;13.37;84.30
74811;DHT22;63340;48.404;-4.506;2023-03-08T03:21:06;13.40;84.21
74811;DHT22;63340;48.404;-4.506;2023-03-08T03:23:32;13.43;84.17
74811;DHT22;63340;48.404;-4.506;2023-03-08T03:26:06;13.40;84.17
74811;DHT22;63340;48.404;-4.506;2023-03-08T03:28:32;13.34;84.50
74811;DHT22;63340;48.404;-4.506;2023-03-08T03:30:57;13.39;84.48
74811;DHT22;63340;48.404;-4.506;2023-03-08T03:33:22;13.41;84.37
74811;DHT22;63340;48.404;-4.506;2023-03-08T03:35:48;13.37;84.30
74811;DHT22;63340;48.404;-4.506;2023-03-08T03:38:13;13.43;84.20
74811;DHT22;63340;48.404;-4.506;2023-03-08T03:40:39;13.47;84.14
74811;DHT22;63340;48.404;-4.506;2023-03-08T03:43:04;13.50;83.89
74811;DHT22;63340;48.404;-4.506;2023-03-08T03:45:30;13.50;83.81
74811;DHT22;63340;48.404;-4.506;2023-03-08T03:47:55;13.47;83.67
74811;DHT22;63340;48.404;-4.506;2023-03-08T03:50:21;13.47;83.67
74811;DHT22;63340;48.404;-4.506;2023-03-08T03:52:46;13.53;83.54
74811;DHT22;63340;48.404;-4.506;2023-03-08T03:55:12;13.54;83.43
74811;DHT22;63340;48.404;-4.506;2023-03-08T03:57:37;13.51;83.56
74811;DHT22;63340;48.404;-4.506;2023-03-08T04:00:03;13.50;83.42
74811;DHT22;63340;48.404;-4.506;2023-03-08T04:02:30;13.54;83.25
74811;DHT22;63340;48.404;-4.506;2023-03-08T04:04:58;13.50;83.29
74811;DHT22;63340;48.404;-4.506;2023-03-08T04:07:23;13.50;83.31
74811;DHT22;63340;48.404;-4.506;2023-03-08T04:09:49;13.50;83.19
74811;DHT22;63340;48.404;-4.506;2023-03-08T04:12:14;13.48;83.13
74811;DHT22;63340;48.404;-4.506;2023-03-08T04:14:40;13.48;83.15
74811;DHT22;63340;48.404;-4.506;2023-03-08T04:17:06;13.47;83.14
74811;DHT22;63340;48.404;-4.506;2023-03-08T04:19:32;13.47;83.13
74811;DHT22;63340;48.404;-4.506;2023-03-08T04:22:00;13.40;83.13
74811;DHT22;63340;48.404;-4.506;2023-03-08T04:24:26;13.40;82.98
74811;DHT22;63340;48.404;-4.506;2023-03-08T04:26:52;13.46;82.87
74811;DHT22;63340;48.404;-4.506;2023-03-08T04:29:20;13.48;82.84
74811;DHT22;63340;48.404;-4.506;2023-03-08T04:31:46;13.51;82.53
74811;DHT22;63340;48.404;-4.506;2023-03-08T04:34:11;13.47;82.48
74811;DHT22;63340;48.404;-4.506;2023-03-08T04:36:37;13.41;82.50
74811;DHT22;63340;48.404;-4.506;2023-03-08T04:39:02;13.43;82.47
74811;DHT22;63340;48.404;-4.506;2023-03-08T04:41:28;13.41;82.43
74811;DHT22;63340;48.404;-4.506;2023-03-08T04:43:55;13.37;82.52
74811;DHT22;63340;48.404;-4.506;2023-03-08T04:46:25;13.44;82.45
74811;DHT22;63340;48.404;-4.506;2023-03-08T04:48:51;13.39;82.37
74811;DHT22;63340;48.404;-4.506;2023-03-08T04:51:30;13.43;82.28
74811;DHT22;63340;48.404;-4.506;2023-03-08T04:53:55;13.41;82.30
74811;DHT22;63340;48.404;-4.506;2023-03-08T04:56:21;13.43;82.27
74811;DHT22;63340;48.404;-4.506;2023-03-08T04:58:46;13.39;82.41
74811;DHT22;63340;48.404;-4.506;2023-03-08T05:01:20;13.36;82.46
74811;DHT22;63340;48.404;-4.506;2023-03-08T05:03:48;13.40;82.41
74811;DHT22;63340;48.404;-4.506;2023-03-08T05:06:14;13.39;82.48
74811;DHT22;63340;48.404;-4.506;2023-03-08T05:08:40;13.40;82.31
74811;DHT22;63340;48.404;-4.506;2023-03-08T05:11:05;13.46;82.20
74811;DHT22;63340;48.404;-4.506;2023-03-08T05:13:36;13.46;82.10
74811;DHT22;63340;48.404;-4.506;2023-03-08T05:16:06;13.47;82.01
74811;DHT22;63340;48.404;-4.506;2023-03-08T05:18:32;13.46;82.05
74811;DHT22;63340;48.404;-4.506;2023-03-08T05:21:04;13.46;81.98
74811;DHT22;63340;48.404;-4.506;2023-03-08T05:23:30;13.47;81.84
74811;DHT22;63340;48.404;-4.506;2023-03-08T05:26:01;13.50;81.83
74811;DHT22;63340;48.404;-4.506;2023-03-08T05:28:30;13.58;81.70
74811;DHT22;63340;48.404;-4.506;2023-03-08T05:31:21;13.51;81.56
74811;DHT22;63340;48.404;-4.506;2023-03-08T05:34:20;13.55;81.39
74811;DHT22;63340;48.404;-4.506;2023-03-08T05:36:45;13.47;81.49
74811;DHT22;63340;48.404;-4.506;2023-03-08T05:39:11;13.47;81.52
74811;DHT22;63340;48.404;-4.506;2023-03-08T05:41:42;13.48;81.42
74811;DHT22;63340;48.404;-4.506;2023-03-08T05:44:10;13.50;81.27
74811;DHT22;63340;48.404;-4.506;2023-03-08T05:46:36;13.50;81.15
74811;DHT22;63340;48.404;-4.506;2023-03-08T05:49:05;13.51;81.00
74811;DHT22;63340;48.404;-4.506;2023-03-08T05:51:31;13.51;80.93
74811;DHT22;63340;48.404;-4.506;2023-03-08T05:53:56;13.48;80.80
74811;DHT22;63340;48.404;-4.506;2023-03-08T05:56:23;13.48;80.67
74811;DHT22;63340;48.404;-4.506;2023-03-08T05:58:49;13.44;80.52
74811;DHT22;63340;48.404;-4.506;2023-03-08T06:01:21;13.47;80.40
74811;DHT22;63340;48.404;-4.506;2023-03-08T06:03:51;13.48;80.32
74811;DHT22;63340;48.404;-4.506;2023-03-08T06:06:18;13.46;80.27
74811;DHT22;63340;48.404;-4.506;2023-03-08T06:08:45;13.50;80.40
74811;DHT22;63340;48.404;-4.506;2023-03-08T06:11:10;13.41;80.57
74811;DHT22;63340;48.404;-4.506;2023-03-08T06:13:36;13.39;80.55
74811;DHT22;63340;48.404;-4.506;2023-03-08T06:16:03;13.40;80.65
74811;DHT22;63340;48.404;-4.506;2023-03-08T06:18:28;13.47;80.57
74811;DHT22;63340;48.404;-4.506;2023-03-08T06:20:58;13.43;80.58
74811;DHT22;63340;48.404;-4.506;2023-03-08T06:23:27;13.44;80.62
74811;DHT22;63340;48.404;-4.506;2023-03-08T06:25:57;13.44;80.69
74811;DHT22;63340;48.404;-4.506;2023-03-08T06:28:29;13.41;80.72
74811;DHT22;63340;48.404;-4.506;2023-03-08T06:30:55;13.41;80.78
74811;DHT22;63340;48.404;-4.506;2023-03-08T06:33:24;13.43;80.79
74811;DHT22;63340;48.404;-4.506;2023-03-08T06:36:21;13.40;80.77
74811;DHT22;63340;48.404;-4.506;2023-03-08T06:38:46;13.46;80.72
74811;DHT22;63340;48.404;-4.506;2023-03-08T06:41:13;13.40;80.67
74811;DHT22;63340;48.404;-4.506;2023-03-08T06:43:39;13.37;80.82
74811;DHT22;63340;48.404;-4.506;2023-03-08T06:46:14;13.37;80.93
74811;DHT22;63340;48.404;-4.506;2023-03-08T06:48:48;13.32;80.82
74811;DHT22;63340;48.404;-4.506;2023-03-08T06:51:14;13.36;80.80
74811;DHT22;63340;48.404;-4.506;2023-03-08T06:53:42;13.37;80.72
74811;DHT22;63340;48.404;-4.506;2023-03-08T06:56:11;13.36;80.66
74811;DHT22;63340;48.404;-4.506;2023-03-08T06:58:37;13.39;80.57
74811;DHT22;63340;48.404;-4.506;2023-03-08T07:01:03;13.34;80.71
74811;DHT22;63340;48.404;-4.506;2023-03-08T07:03:30;13.39;80.52
74811;DHT22;63340;48.404;-4.506;2023-03-08T07:06:03;13.41;80.41
74811;DHT22;63340;48.404;-4.506;2023-03-08T07:08:29;13.44;80.36
74811;DHT22;63340;48.404;-4.506;2023-03-08T07:10:55;13.46;80.30
74811;DHT22;63340;48.404;-4.506;2023-03-08T07:13:22;13.44;80.22
74811;DHT22;63340;48.404;-4.506;2023-03-08T07:15:49;13.39;80.31
74811;DHT22;63340;48.404;-4.506;2023-03-08T07:18:14;13.37;80.31
74811;DHT22;63340;48.404;-4.506;2023-03-08T07:20:40;13.44;80.22
74811;DHT22;63340;48.404;-4.506;2023-03-08T07:23:05;13.48;80.18
74811;DHT22;63340;48.404;-4.506;2023-03-08T07:25:31;13.47;80.09
74811;DHT22;63340;48.404;-4.506;2023-03-08T07:27:58;13.46;80.06
74811;DHT22;63340;48.404;-4.506;2023-03-08T07:30:24;13.39;80.08
74811;DHT22;63340;48.404;-4.506;2023-03-08T07:32:52;13.41;80.26
74811;DHT22;63340;48.404;-4.506;2023-03-08T07:35:17;13.43;80.31
74811;DHT22;63340;48.404;-4.506;2023-03-08T07:37:44;13.44;80.35
74811;DHT22;63340;48.404;-4.506;2023-03-08T07:40:14;13.47;80.29
74811;DHT22;63340;48.404;-4.506;2023-03-08T07:42:41;13.54;80.27
74811;DHT22;63340;48.404;-4.506;2023-03-08T07:45:07;13.48;80.28
74811;DHT22;63340;48.404;-4.506;2023-03-08T07:47:32;13.43;80.47
74811;DHT22;63340;48.404;-4.506;2023-03-08T07:49:58;13.53;80.50
74811;DHT22;63340;48.404;-4.506;2023-03-08T07:52:27;13.55;80.50
74811;DHT22;63340;48.404;-4.506;2023-03-08T07:54:53;13.50;80.53
74811;DHT22;63340;48.404;-4.506;2023-03-08T07:57:19;13.53;80.78
74811;DHT22;63340;48.404;-4.506;2023-03-08T07:59:44;13.58;80.74
74811;DHT22;63340;48.404;-4.506;2023-03-08T08:02:11;13.60;80.56
74811;DHT22;63340;48.404;-4.506;2023-03-08T08:04:38;13.60;80.45
74811;DHT22;63340;48.404;-4.506;2023-03-08T08:07:04;13.55;80.92
74811;DHT22;63340;48.404;-4.506;2023-03-08T08:09:29;13.57;80.93
74811;DHT22;63340;48.404;-4.506;2023-03-08T08:11:54;13.62;81.03
74811;DHT22;63340;48.404;-4.506;2023-03-08T08:14:20;13.62;81.02
74811;DHT22;63340;48.404;-4.506;2023-03-08T08:16:45;13.65;80.88
74811;DHT22;63340;48.404;-4.506;2023-03-08T08:19:11;13.70;80.81
74811;DHT22;63340;48.404;-4.506;2023-03-08T08:21:39;13.62;80.94
74811;DHT22;63340;48.404;-4.506;2023-03-08T08:24:04;13.60;81.08
74811;DHT22;63340;48.404;-4.506;2023-03-08T08:26:30;13.64;81.08
74811;DHT22;63340;48.404;-4.506;2023-03-08T08:28:55;13.61;81.20
74811;DHT22;63340;48.404;-4.506;2023-03-08T08:31:23;13.53;81.38
74811;DHT22;63340;48.404;-4.506;2023-03-08T08:33:49;13.57;81.51
74811;DHT22;63340;48.404;-4.506;2023-03-08T08:36:17;13.55;81.47
74811;DHT22;63340;48.404;-4.506;2023-03-08T08:38:43;13.51;81.48
74811;DHT22;63340;48.404;-4.506;2023-03-08T08:41:11;13.57;81.60
74811;DHT22;63340;48.404;-4.506;2023-03-08T08:43:39;13.55;81.55
74811;DHT22;63340;48.404;-4.506;2023-03-08T08:46:05;13.58;81.73
74811;DHT22;63340;48.404;-4.506;2023-03-08T08:48:30;13.50;81.75
74811;DHT22;63340;48.404;-4.506;2023-03-08T08:50:59;13.53;81.93
74811;DHT22;63340;48.404;-4.506;2023-03-08T08:53:25;13.53;81.79
74811;DHT22;63340;48.404;-4.506;2023-03-08T08:55:51;13.44;82.01
74811;DHT22;63340;48.404;-4.506;2023-03-08T08:58:16;13.43;82.06
74811;DHT22;63340;48.404;-4.506;2023-03-08T09:00:43;13.41;82.10
74811;DHT22;63340;48.404;-4.506;2023-03-08T09:03:09;13.50;82.02
74811;DHT22;63340;48.404;-4.506;2023-03-08T09:05:38;13.53;82.00
74811;DHT22;63340;48.404;-4.506;2023-03-08T09:08:05;13.46;81.82
74811;DHT22;63340;48.404;-4.506;2023-03-08T09:10:33;13.55;81.50
74811;DHT22;63340;48.404;-4.506;2023-03-08T09:12:58;13.47;81.14
74811;DHT22;63340;48.404;-4.506;2023-03-08T09:15:24;13.57;81.20
74811;DHT22;63340;48.404;-4.506;2023-03-08T09:17:50;13.62;81.08
74811;DHT22;63340;48.404;-4.506;2023-03-08T09:20:16;13.67;80.37
74811;DHT22;63340;48.404;-4.506;2023-03-08T09:22:42;13.71;80.19
74811;DHT22;63340;48.404;-4.506;2023-03-08T09:25:09;13.62;79.62
74811;DHT22;63340;48.404;-4.506;2023-03-08T09:27:36;13.71;79.53
74811;DHT22;63340;48.404;-4.506;2023-03-08T09:30:02;13.75;79.17
74811;DHT22;63340;48.404;-4.506;2023-03-08T09:32:27;13.79;78.99
74811;DHT22;63340;48.404;-4.506;2023-03-08T09:34:53;13.85;78.73
74811;DHT22;63340;48.404;-4.506;2023-03-08T09:37:19;13.86;78.36
74811;DHT22;63340;48.404;-4.506;2023-03-08T09:39:45;13.99;78.69
74811;DHT22;63340;48.404;-4.506;2023-03-08T09:42:17;13.94;78.03
74811;DHT22;63340;48.404;-4.506;2023-03-08T09:48:08;13.88;78.23
74811;DHT22;63340;48.404;-4.506;2023-03-08T09:55:31;13.79;79.07
74811;DHT22;63340;48.404;-4.506;2023-03-08T10:00:43;13.86;79.74
74811;DHT22;63340;48.404;-4.506;2023-03-08T10:03:20;13.95;79.87
74811;DHT22;63340;48.404;-4.506;2023-03-08T10:10:59;13.82;80.37
74811;DHT22;63340;48.404;-4.506;2023-03-08T10:13:29;13.79;80.61
74811;DHT22;63340;48.404;-4.506;2023-03-08T10:16:16;13.78;80.93
74811;DHT22;63340;48.404;-4.506;2023-03-08T10:18:51;13.85;80.97
74811;DHT22;63340;48.404;-4.506;2023-03-08T10:21:20;13.89;80.67
74811;DHT22;63340;48.404;-4.506;2023-03-08T10:26:32;13.85;81.00
74811;DHT22;63340;48.404;-4.506;2023-03-08T10:28:58;13.89;81.10
74811;DHT22;63340;48.404;-4.506;2023-03-08T10:31:28;13.86;81.56
74811;DHT22;63340;48.404;-4.506;2023-03-08T10:34:19;13.92;81.55
74811;DHT22;63340;48.404;-4.506;2023-03-08T10:37:05;13.95;81.60
74811;DHT22;63340;48.404;-4.506;2023-03-08T10:39:34;13.91;81.94
74811;DHT22;63340;48.404;-4.506;2023-03-08T10:42:06;13.86;82.18
74811;DHT22;63340;48.404;-4.506;2023-03-08T10:44:46;13.88;82.17
74811;DHT22;63340;48.404;-4.506;2023-03-08T10:47:33;13.89;82.09
74811;DHT22;63340;48.404;-4.506;2023-03-08T10:52:38;13.79;82.20
74811;DHT22;63340;48.404;-4.506;2023-03-08T10:57:34;13.75;82.38
74811;DHT22;63340;48.404;-4.506;2023-03-08T11:02:36;13.65;82.76
74811;DHT22;63340;48.404;-4.506;2023-03-08T11:05:18;13.70;82.95
74811;DHT22;63340;48.404;-4.506;2023-03-08T11:07:52;13.60;83.17
74811;DHT22;63340;48.404;-4.506;2023-03-08T11:10:19;13.51;83.62
74811;DHT22;63340;48.404;-4.506;2023-03-08T11:12:59;13.54;84.16
74811;DHT22;63340;48.404;-4.506;2023-03-08T11:15:28;13.47;84.52
74811;DHT22;63340;48.404;-4.506;2023-03-08T11:21:54;13.51;84.75
74811;DHT22;63340;48.404;-4.506;2023-03-08T11:35:43;13.75;82.91
74811;DHT22;63340;48.404;-4.506;2023-03-08T11:38:26;13.83;83.08
74811;DHT22;63340;48.404;-4.506;2023-03-08T11:41:33;13.89;82.97
74811;DHT22;63340;48.404;-4.506;2023-03-08T11:47:42;13.86;82.99
74811;DHT22;63340;48.404;-4.506;2023-03-08T11:50:20;13.82;83.07
74811;DHT22;63340;48.404;-4.506;2023-03-08T11:52:56;13.94;83.47
74811;DHT22;63340;48.404;-4.506;2023-03-08T12:00:39;13.98;83.40
74811;DHT22;63340;48.404;-4.506;2023-03-08T12:03:13;14.02;83.29
74811;DHT22;63340;48.404;-4.506;2023-03-08T12:05:45;14.02;83.21
74811;DHT22;63340;48.404;-4.506;2023-03-08T12:11:11;14.13;83.23
74811;DHT22;63340;48.404;-4.506;2023-03-08T12:13:46;14.13;82.96
74811;DHT22;63340;48.404;-4.506;2023-03-08T12:16:17;14.16;82.96
74811;DHT22;63340;48.404;-4.506;2023-03-08T12:19:13;14.28;82.99
74811;DHT22;63340;48.404;-4.506;2023-03-08T12:25:21;14.28;82.83
74811;DHT22;63340;48.404;-4.506;2023-03-08T12:32:55;14.18;83.23
74811;DHT22;63340;48.404;-4.506;2023-03-08T12:37:55;14.06;83.20
74811;DHT22;63340;48.404;-4.506;2023-03-08T12:40:38;13.97;83.07
74811;DHT22;63340;48.404;-4.506;2023-03-08T12:46:49;14.04;83.25
74811;DHT22;63340;48.404;-4.506;2023-03-08T12:49:31;14.02;83.30
74811;DHT22;63340;48.404;-4.506;2023-03-08T12:52:00;14.09;83.36
74811;DHT22;63340;48.404;-4.506;2023-03-08T12:54:29;14.19;83.76
74811;DHT22;63340;48.404;-4.506;2023-03-08T12:56:55;14.18;83.28
74811;DHT22;63340;48.404;-4.506;2023-03-08T13:02:00;14.43;82.86
74811;DHT22;63340;48.404;-4.506;2023-03-08T13:04:34;14.56;82.74
74811;DHT22;63340;48.404;-4.506;2023-03-08T13:19:58;14.67;81.15
74811;DHT22;63340;48.404;-4.506;2023-03-08T13:22:40;14.59;80.88
74811;DHT22;63340;48.404;-4.506;2023-03-08T13:25:12;14.67;81.12
74811;DHT22;63340;48.404;-4.506;2023-03-08T13:30:24;14.64;80.79
74811;DHT22;63340;48.404;-4.506;2023-03-08T13:32:52;14.67;80.61
74811;DHT22;63340;48.404;-4.506;2023-03-08T13:35:18;14.66;80.47
74811;DHT22;63340;48.404;-4.506;2023-03-08T13:37:54;14.67;80.34
74811;DHT22;63340;48.404;-4.506;2023-03-08T13:40:21;14.55;80.42
74811;DHT22;63340;48.404;-4.506;2023-03-08T13:42:58;14.53;80.19
74811;DHT22;63340;48.404;-4.506;2023-03-08T13:45:25;14.57;80.01
74811;DHT22;63340;48.404;-4.506;2023-03-08T13:47:52;14.59;80.04
74811;DHT22;63340;48.404;-4.506;2023-03-08T13:50:41;14.51;79.74
74811;DHT22;63340;48.404;-4.506;2023-03-08T13:53:16;14.49;79.94
74811;DHT22;63340;48.404;-4.506;2023-03-08T13:55:44;14.47;80.18
74811;DHT22;63340;48.404;-4.506;2023-03-08T14:01:09;14.55;79.91
74811;DHT22;63340;48.404;-4.506;2023-03-08T14:03:36;14.56;79.98
74811;DHT22;63340;48.404;-4.506;2023-03-08T14:06:01;14.47;80.46
74811;DHT22;63340;48.404;-4.506;2023-03-08T14:08:28;14.46;80.56
74811;DHT22;63340;48.404;-4.506;2023-03-08T14:11:03;14.49;80.42
74811;DHT22;63340;48.404;-4.506;2023-03-08T14:13:36;14.41;80.45
74811;DHT22;63340;48.404;-4.506;2023-03-08T14:16:04;14.43;80.51
74811;DHT22;63340;48.404;-4.506;2023-03-08T14:18:34;14.55;80.45
74811;DHT22;63340;48.404;-4.506;2023-03-08T14:21:03;14.56;80.35
74811;DHT22;63340;48.404;-4.506;2023-03-08T14:23:29;14.61;80.51
74811;DHT22;63340;48.404;-4.506;2023-03-08T14:25:57;14.63;80.17
74811;DHT22;63340;48.404;-4.506;2023-03-08T14:28:46;14.60;79.91
74811;DHT22;63340;48.404;-4.506;2023-03-08T14:31:25;14.64;79.80
74811;DHT22;63340;48.404;-4.506;2023-03-08T14:34:00;14.57;79.74
74811;DHT22;63340;48.404;-4.506;2023-03-08T14:36:27;14.55;80.00
74811;DHT22;63340;48.404;-4.506;2023-03-08T14:38:53;14.51;79.85
74811;DHT22;63340;48.404;-4.506;2023-03-08T14:41:29;14.44;79.98
74811;DHT22;63340;48.404;-4.506;2023-03-08T14:43:55;14.46;80.11
74811;DHT22;63340;48.404;-4.506;2023-03-08T14:46:21;14.46;80.27
74811;DHT22;63340;48.404;-4.506;2023-03-08T14:48:56;14.47;80.10
74811;DHT22;63340;48.404;-4.506;2023-03-08T14:51:27;14.51;80.20
74811;DHT22;63340;48.404;-4.506;2023-03-08T14:54:05;14.43;80.07
74811;DHT22;63340;48.404;-4.506;2023-03-08T14:56:32;14.39;80.06
74811;DHT22;63340;48.404;-4.506;2023-03-08T14:59:01;14.44;80.10
74811;DHT22;63340;48.404;-4.506;2023-03-08T15:01:34;14.34;80.12
74811;DHT22;63340;48.404;-4.506;2023-03-08T15:04:01;14.36;80.34
74811;DHT22;63340;48.404;-4.506;2023-03-08T15:06:30;14.30;80.13
74811;DHT22;63340;48.404;-4.506;2023-03-08T15:08:57;14.34;80.04
74811;DHT22;63340;48.404;-4.506;2023-03-08T15:11:23;14.30;80.30
74811;DHT22;63340;48.404;-4.506;2023-03-08T15:13:49;14.39;80.10
74811;DHT22;63340;48.404;-4.506;2023-03-08T15:16:15;14.36;80.03
74811;DHT22;63340;48.404;-4.506;2023-03-08T15:18:40;14.40;80.08
74811;DHT22;63340;48.404;-4.506;2023-03-08T15:21:11;14.40;79.91
74811;DHT22;63340;48.404;-4.506;2023-03-08T15:23:38;14.43;79.98
74811;DHT22;63340;48.404;-4.506;2023-03-08T15:26:05;14.43;79.93
74811;DHT22;63340;48.404;-4.506;2023-03-08T15:28:31;14.44;80.03
74811;DHT22;63340;48.404;-4.506;2023-03-08T15:30:56;14.37;80.05
74811;DHT22;63340;48.404;-4.506;2023-03-08T15:33:22;14.37;79.91
74811;DHT22;63340;48.404;-4.506;2023-03-08T15:35:48;14.36;79.90
74811;DHT22;63340;48.404;-4.506;2023-03-08T15:38:15;14.36;79.93
74811;DHT22;63340;48.404;-4.506;2023-03-08T15:40:42;14.33;79.94
74811;DHT22;63340;48.404;-4.506;2023-03-08T15:43:07;14.37;79.98
74811;DHT22;63340;48.404;-4.506;2023-03-08T15:45:33;14.43;79.76
74811;DHT22;63340;48.404;-4.506;2023-03-08T15:48:16;14.41;79.55
74811;DHT22;63340;48.404;-4.506;2023-03-08T15:50:42;14.47;79.51
74811;DHT22;63340;48.404;-4.506;2023-03-08T15:53:08;14.39;79.68
74811;DHT22;63340;48.404;-4.506;2023-03-08T15:55:36;14.41;79.75
74811;DHT22;63340;48.404;-4.506;2023-03-08T15:58:01;14.39;79.66
74811;DHT22;63340;48.404;-4.506;2023-03-08T16:00:28;14.40;79.78
74811;DHT22;63340;48.404;-4.506;2023-03-08T16:02:53;14.36;79.72
74811;DHT22;63340;48.404;-4.506;2023-03-08T16:05:20;14.43;79.72
74811;DHT22;63340;48.404;-4.506;2023-03-08T16:07:55;14.43;79.53
74811;DHT22;63340;48.404;-4.506;2023-03-08T16:10:22;14.36;79.70
74811;DHT22;63340;48.404;-4.506;2023-03-08T16:12:47;14.41;79.67
74811;DHT22;63340;48.404;-4.506;2023-03-08T16:15:13;14.36;79.80
74811;DHT22;63340;48.404;-4.506;2023-03-08T16:17:38;14.39;79.84
74811;DHT22;63340;48.404;-4.506;2023-03-08T16:20:04;14.39;79.73
74811;DHT22;63340;48.404;-4.506;2023-03-08T16:22:33;14.33;79.88
74811;DHT22;63340;48.404;-4.506;2023-03-08T16:24:59;14.30;80.05
74811;DHT22;63340;48.404;-4.506;2023-03-08T16:27:24;14.23;80.19
74811;DHT22;63340;48.404;-4.506;2023-03-08T16:29:51;14.22;80.40
74811;DHT22;63340;48.404;-4.506;2023-03-08T16:32:17;14.22;80.47
74811;DHT22;63340;48.404;-4.506;2023-03-08T16:34:43;14.23;80.50
74811;DHT22;63340;48.404;-4.506;2023-03-08T16:37:11;14.29;80.38
74811;DHT22;63340;48.404;-4.506;2023-03-08T16:39:37;14.25;80.62
74811;DHT22;63340;48.404;-4.506;2023-03-08T16:42:02;14.25;80.58
74811;DHT22;63340;48.404;-4.506;2023-03-08T16:44:29;14.28;80.62
74811;DHT22;63340;48.404;-4.506;2023-03-08T16:46:56;14.15;80.93
74811;DHT22;63340;48.404;-4.506;2023-03-08T16:49:22;14.19;80.85
74811;DHT22;63340;48.404;-4.506;2023-03-08T16:51:53;14.16;80.90
74811;DHT22;63340;48.404;-4.506;2023-03-08T16:54:19;14.12;81.06